sensor_id;sensor_type;location;lat;lon;timestamp;P1;durP1;ratioP1;P2;durP2;ratioP2
353;SDS011;165;53.592;10.044;2023-02-18T00:00:01;16.27;;;5.60;;
353;SDS011;165;53.592;10.044;2023-02-18T00:02:27;17.70;;;3.80;;
353;SDS011;165;53.592;10.044;2023-02-18T00:04:53;25.90;;;6.97;;
353;SDS011;165;53.592;10.044;2023-02-18T00:07:19;16.60;;;4.60;;
353;SDS011;165;53.592;10.044;2023-02-18T00:09:44;16.00;;;4.10;;
353;SDS011;165;53.592;10.044;2023-02-18T00:12:10;15.13;;;3.70;;
353;SDS011;165;53.592;10.044;2023-02-18T00:14:35;14.73;;;3.63;;
353;SDS011;165;53.592;10.044;2023-02-18T00:17:02;15.83;;;4.10;;
353;SDS011;165;53.592;10.044;2023-02-18T00:19:27;29.43;;;6.10;;
353;SDS011;165;53.592;10.044;2023-02-18T00:21:52;14.83;;;5.53;;
353;SDS011;165;53.592;10.044;2023-02-18T00:24:18;12.37;;;3.70;;
353;SDS011;165;53.592;10.044;2023-02-18T00:26:44;13.17;;;4.40;;
353;SDS011;165;53.592;10.044;2023-02-18T00:29:09;20.17;;;5.93;;
353;SDS011;165;53.592;10.044;2023-02-18T00:31:35;14.43;;;3.37;;
353;SDS011;165;53.592;10.044;2023-02-18T00:34:03;16.20;;;3.50;;
353;SDS011;165;53.592;10.044;2023-02-18T00:36:29;19.57;;;3.83;;
353;SDS011;165;53.592;10.044;2023-02-18T00:38:57;16.00;;;4.30;;
353;SDS011;165;53.592;10.044;2023-02-18T00:41:25;16.90;;;5.87;;
353;SDS011;165;53.592;10.044;2023-02-18T00:43:52;20.37;;;4.00;;
353;SDS011;165;53.592;10.044;2023-02-18T00:46:17;12.17;;;3.70;;
353;SDS011;165;53.592;10.044;2023-02-18T00:48:43;14.93;;;4.30;;
353;SDS011;165;53.592;10.044;2023-02-18T00:51:08;15.17;;;3.80;;
353;SDS011;165;53.592;10.044;2023-02-18T00:53:35;20.17;;;4.60;;
353;SDS011;165;53.592;10.044;2023-02-18T00:56:01;17.20;;;4.80;;
353;SDS011;165;53.592;10.044;2023-02-18T00:58:27;18.50;;;4.20;;
353;SDS011;165;53.592;10.044;2023-02-18T01:00:53;16.50;;;4.90;;
353;SDS011;165;53.592;10.044;2023-02-18T01:03:22;17.90;;;4.50;;
353;SDS011;165;53.592;10.044;2023-02-18T01:05:48;23.40;;;6.53;;
353;SDS011;165;53.592;10.044;2023-02-18T01:08:14;19.43;;;4.67;;
353;SDS011;165;53.592;10.044;2023-02-18T01:10:45;16.87;;;4.50;;
353;SDS011;165;53.592;10.044;2023-02-18T01:13:12;9.83;;;3.70;;
353;SDS011;165;53.592;10.044;2023-02-18T01:15:39;16.20;;;5.80;;
353;SDS011;165;53.592;10.044;2023-02-18T01:18:05;19.37;;;7.70;;
353;SDS011;165;53.592;10.044;2023-02-18T01:20:31;14.87;;;5.57;;
353;SDS011;165;53.592;10.044;2023-02-18T01:22:57;16.40;;;3.67;;
353;SDS011;165;53.592;10.044;2023-02-18T01:25:22;15.53;;;3.50;;
353;SDS011;165;53.592;10.044;2023-02-18T01:27:48;15.67;;;7.00;;
353;SDS011;165;53.592;10.044;2023-02-18T01:30:14;15.87;;;4.00;;
353;SDS011;165;53.592;10.044;2023-02-18T01:32:41;14.40;;;4.57;;
353;SDS011;165;53.592;10.044;2023-02-18T01:35:07;18.43;;;4.40;;
353;SDS011;165;53.592;10.044;2023-02-18T01:37:36;20.37;;;5.27;;
353;SDS011;165;53.592;10.044;2023-02-18T01:40:01;13.83;;;3.47;;
353;SDS011;165;53.592;10.044;2023-02-18T01:42:28;16.33;;;4.13;;
353;SDS011;165;53.592;10.044;2023-02-18T01:44:54;17.27;;;3.50;;
353;SDS011;165;53.592;10.044;2023-02-18T01:48:14;15.23;;;3.60;;
353;SDS011;165;53.592;10.044;2023-02-18T01:50:56;9.50;;;3.40;;
353;SDS011;165;53.592;10.044;2023-02-18T01:56:46;12.40;;;3.90;;
353;SDS011;165;53.592;10.044;2023-02-18T01:59:16;12.57;;;3.40;;
353;SDS011;165;53.592;10.044;2023-02-18T02:01:47;15.03;;;4.20;;
353;SDS011;165;53.592;10.044;2023-02-18T02:04:12;13.50;;;2.90;;
353;SDS011;165;53.592;10.044;2023-02-18T02:06:38;11.57;;;4.37;;
353;SDS011;165;53.592;10.044;2023-02-18T02:09:04;14.00;;;3.43;;
353;SDS011;165;53.592;10.044;2023-02-18T02:17:53;19.83;;;3.73;;
353;SDS011;165;53.592;10.044;2023-02-18T02:32:40;19.83;;;4.03;;
353;SDS011;165;53.592;10.044;2023-02-18T02:35:32;14.07;;;4.80;;
353;SDS011;165;53.592;10.044;2023-02-18T02:38:06;23.60;;;4.47;;
353;SDS011;165;53.592;10.044;2023-02-18T02:41:15;25.93;;;4.50;;
353;SDS011;165;53.592;10.044;2023-02-18T02:51:46;9.23;;;3.43;;
353;SDS011;165;53.592;10.044;2023-02-18T02:54:24;12.33;;;3.30;;
353;SDS011;165;53.592;10.044;2023-02-18T02:57:52;14.40;;;3.40;;
353;SDS011;165;53.592;10.044;2023-02-18T02:59:47;14.57;;;4.10;;
353;SDS011;165;53.592;10.044;2023-02-18T03:11:08;12.03;;;2.97;;
353;SDS011;165;53.592;10.044;2023-02-18T03:21:51;9.60;;;3.47;;
353;SDS011;165;53.592;10.044;2023-02-18T03:24:33;10.47;;;2.87;;
353;SDS011;165;53.592;10.044;2023-02-18T03:27:07;12.70;;;4.20;;
353;SDS011;165;53.592;10.044;2023-02-18T03:29:42;11.60;;;3.40;;
353;SDS011;165;53.592;10.044;2023-02-18T03:32:12;15.87;;;3.47;;
353;SDS011;165;53.592;10.044;2023-02-18T03:34:43;10.23;;;3.30;;
353;SDS011;165;53.592;10.044;2023-02-18T03:37:12;8.67;;;3.00;;
353;SDS011;165;53.592;10.044;2023-02-18T03:39:40;12.17;;;3.47;;
353;SDS011;165;53.592;10.044;2023-02-18T03:42:08;10.40;;;3.10;;
353;SDS011;165;53.592;10.044;2023-02-18T03:44:33;18.80;;;4.50;;
353;SDS011;165;53.592;10.044;2023-02-18T03:46:59;17.33;;;3.50;;
353;SDS011;165;53.592;10.044;2023-02-18T03:49:25;10.57;;;3.40;;
353;SDS011;165;53.592;10.044;2023-02-18T03:51:50;8.43;;;3.07;;
353;SDS011;165;53.592;10.044;2023-02-18T03:54:16;11.30;;;2.90;;
353;SDS011;165;53.592;10.044;2023-02-18T03:56:41;18.30;;;3.80;;
353;SDS011;165;53.592;10.044;2023-02-18T03:59:07;14.87;;;3.30;;
353;SDS011;165;53.592;10.044;2023-02-18T04:01:33;10.77;;;4.20;;
353;SDS011;165;53.592;10.044;2023-02-18T04:03:58;19.80;;;6.50;;
353;SDS011;165;53.592;10.044;2023-02-18T04:06:24;13.10;;;2.80;;
353;SDS011;165;53.592;10.044;2023-02-18T04:08:50;7.30;;;3.37;;
353;SDS011;165;53.592;10.044;2023-02-18T04:11:15;7.60;;;2.90;;
353;SDS011;165;53.592;10.044;2023-02-18T04:13:41;10.50;;;5.10;;
353;SDS011;165;53.592;10.044;2023-02-18T04:16:07;13.80;;;2.90;;
353;SDS011;165;53.592;10.044;2023-02-18T04:18:32;11.53;;;3.13;;
353;SDS011;165;53.592;10.044;2023-02-18T04:20:58;6.70;;;2.13;;
353;SDS011;165;53.592;10.044;2023-02-18T04:23:23;14.73;;;3.57;;
353;SDS011;165;53.592;10.044;2023-02-18T04:25:49;6.73;;;2.20;;
353;SDS011;165;53.592;10.044;2023-02-18T04:28:17;12.30;;;4.20;;
353;SDS011;165;53.592;10.044;2023-02-18T04:30:48;9.77;;;3.30;;
353;SDS011;165;53.592;10.044;2023-02-18T04:33:13;12.73;;;2.70;;
353;SDS011;165;53.592;10.044;2023-02-18T04:35:39;10.90;;;3.63;;
353;SDS011;165;53.592;10.044;2023-02-18T04:38:05;7.60;;;2.30;;
353;SDS011;165;53.592;10.044;2023-02-18T04:40:32;14.67;;;3.23;;
353;SDS011;165;53.592;10.044;2023-02-18T04:42:58;11.07;;;2.20;;
353;SDS011;165;53.592;10.044;2023-02-18T04:45:24;9.87;;;2.50;;
353;SDS011;165;53.592;10.044;2023-02-18T04:47:51;7.07;;;3.03;;
353;SDS011;165;53.592;10.044;2023-02-18T04:50:17;7.13;;;2.23;;
353;SDS011;165;53.592;10.044;2023-02-18T04:52:43;13.13;;;5.70;;
353;SDS011;165;53.592;10.044;2023-02-18T04:55:09;8.70;;;3.03;;
353;SDS011;165;53.592;10.044;2023-02-18T04:57:34;8.13;;;2.17;;
353;SDS011;165;53.592;10.044;2023-02-18T05:00:00;11.60;;;2.73;;
353;SDS011;165;53.592;10.044;2023-02-18T05:02:25;10.07;;;2.67;;
353;SDS011;165;53.592;10.044;2023-02-18T05:04:51;13.73;;;2.87;;
353;SDS011;165;53.592;10.044;2023-02-18T05:07:16;7.10;;;1.83;;
353;SDS011;165;53.592;10.044;2023-02-18T05:09:42;8.00;;;3.10;;
353;SDS011;165;53.592;10.044;2023-02-18T05:12:07;9.87;;;2.30;;
353;SDS011;165;53.592;10.044;2023-02-18T05:14:33;7.10;;;2.53;;
353;SDS011;165;53.592;10.044;2023-02-18T05:16:58;10.37;;;2.50;;
353;SDS011;165;53.592;10.044;2023-02-18T05:19:24;12.20;;;2.47;;
353;SDS011;165;53.592;10.044;2023-02-18T05:21:49;9.90;;;3.60;;
353;SDS011;165;53.592;10.044;2023-02-18T05:24:15;10.17;;;2.70;;
353;SDS011;165;53.592;10.044;2023-02-18T05:26:40;5.33;;;2.80;;
353;SDS011;165;53.592;10.044;2023-02-18T05:29:06;3.13;;;1.90;;
353;SDS011;165;53.592;10.044;2023-02-18T05:31:31;10.90;;;2.77;;
353;SDS011;165;53.592;10.044;2023-02-18T05:33:59;9.43;;;2.57;;
353;SDS011;165;53.592;10.044;2023-02-18T05:36:25;10.67;;;2.67;;
353;SDS011;165;53.592;10.044;2023-02-18T05:38:51;10.77;;;3.10;;
353;SDS011;165;53.592;10.044;2023-02-18T05:41:16;13.10;;;3.77;;
353;SDS011;165;53.592;10.044;2023-02-18T05:43:42;13.53;;;2.60;;
353;SDS011;165;53.592;10.044;2023-02-18T05:46:07;8.40;;;3.90;;
353;SDS011;165;53.592;10.044;2023-02-18T05:48:33;5.87;;;2.53;;
353;SDS011;165;53.592;10.044;2023-02-18T05:50:58;9.90;;;2.90;;
353;SDS011;165;53.592;10.044;2023-02-18T05:53:24;9.90;;;2.43;;
353;SDS011;165;53.592;10.044;2023-02-18T05:55:49;10.80;;;3.27;;
353;SDS011;165;53.592;10.044;2023-02-18T05:58:15;4.37;;;1.83;;
353;SDS011;165;53.592;10.044;2023-02-18T06:00:40;6.37;;;2.10;;
353;SDS011;165;53.592;10.044;2023-02-18T06:03:06;11.27;;;2.47;;
353;SDS011;165;53.592;10.044;2023-02-18T06:05:31;8.13;;;2.07;;
353;SDS011;165;53.592;10.044;2023-02-18T06:07:57;13.90;;;2.23;;
353;SDS011;165;53.592;10.044;2023-02-18T06:10:22;9.90;;;2.43;;
353;SDS011;165;53.592;10.044;2023-02-18T06:12:48;9.33;;;3.63;;
353;SDS011;165;53.592;10.044;2023-02-18T06:15:13;7.40;;;2.00;;
353;SDS011;165;53.592;10.044;2023-02-18T06:17:39;11.37;;;2.70;;
353;SDS011;165;53.592;10.044;2023-02-18T06:20:04;10.93;;;2.43;;
353;SDS011;165;53.592;10.044;2023-02-18T06:22:30;8.10;;;2.30;;
353;SDS011;165;53.592;10.044;2023-02-18T06:24:56;6.70;;;3.17;;
353;SDS011;165;53.592;10.044;2023-02-18T06:27:21;7.37;;;1.90;;
353;SDS011;165;53.592;10.044;2023-02-18T06:29:46;4.70;;;2.10;;
353;SDS011;165;53.592;10.044;2023-02-18T06:32:12;7.40;;;1.97;;
353;SDS011;165;53.592;10.044;2023-02-18T06:34:37;6.17;;;1.80;;
353;SDS011;165;53.592;10.044;2023-02-18T06:37:03;5.27;;;1.73;;
353;SDS011;165;53.592;10.044;2023-02-18T06:39:28;6.17;;;1.90;;
353;SDS011;165;53.592;10.044;2023-02-18T06:41:54;6.30;;;2.80;;
353;SDS011;165;53.592;10.044;2023-02-18T06:44:19;5.47;;;2.10;;
353;SDS011;165;53.592;10.044;2023-02-18T06:46:45;9.03;;;2.40;;
353;SDS011;165;53.592;10.044;2023-02-18T06:49:10;4.67;;;2.07;;
353;SDS011;165;53.592;10.044;2023-02-18T06:51:36;5.30;;;2.13;;
353;SDS011;165;53.592;10.044;2023-02-18T06:54:01;9.77;;;1.67;;
353;SDS011;165;53.592;10.044;2023-02-18T06:56:27;8.60;;;2.30;;
353;SDS011;165;53.592;10.044;2023-02-18T06:58:52;7.93;;;2.07;;
353;SDS011;165;53.592;10.044;2023-02-18T07:01:18;6.80;;;2.53;;
353;SDS011;165;53.592;10.044;2023-02-18T07:03:46;5.80;;;1.30;;
353;SDS011;165;53.592;10.044;2023-02-18T07:06:11;6.83;;;1.90;;
353;SDS011;165;53.592;10.044;2023-02-18T07:08:37;8.10;;;1.70;;
353;SDS011;165;53.592;10.044;2023-02-18T07:11:02;4.03;;;2.30;;
353;SDS011;165;53.592;10.044;2023-02-18T07:13:28;2.90;;;2.70;;
353;SDS011;165;53.592;10.044;2023-02-18T07:15:54;7.30;;;2.00;;
353;SDS011;165;53.592;10.044;2023-02-18T07:18:19;9.77;;;2.03;;
353;SDS011;165;53.592;10.044;2023-02-18T07:20:44;11.87;;;2.80;;
353;SDS011;165;53.592;10.044;2023-02-18T07:23:10;4.53;;;2.00;;
353;SDS011;165;53.592;10.044;2023-02-18T07:25:36;8.07;;;2.50;;
353;SDS011;165;53.592;10.044;2023-02-18T07:28:01;6.50;;;2.27;;
353;SDS011;165;53.592;10.044;2023-02-18T07:30:27;6.10;;;2.27;;
353;SDS011;165;53.592;10.044;2023-02-18T07:32:52;10.40;;;2.50;;
353;SDS011;165;53.592;10.044;2023-02-18T07:35:18;17.60;;;8.90;;
353;SDS011;165;53.592;10.044;2023-02-18T07:37:44;8.53;;;2.63;;
353;SDS011;165;53.592;10.044;2023-02-18T07:40:11;7.53;;;3.30;;
353;SDS011;165;53.592;10.044;2023-02-18T07:42:38;10.60;;;2.13;;
353;SDS011;165;53.592;10.044;2023-02-18T07:45:03;5.90;;;1.90;;
353;SDS011;165;53.592;10.044;2023-02-18T07:47:29;6.30;;;2.60;;
353;SDS011;165;53.592;10.044;2023-02-18T07:49:55;6.70;;;2.47;;
353;SDS011;165;53.592;10.044;2023-02-18T07:52:20;8.13;;;2.27;;
353;SDS011;165;53.592;10.044;2023-02-18T07:54:46;8.77;;;2.50;;
353;SDS011;165;53.592;10.044;2023-02-18T07:57:14;18.30;;;3.33;;
353;SDS011;165;53.592;10.044;2023-02-18T07:59:40;11.90;;;3.90;;
353;SDS011;165;53.592;10.044;2023-02-18T08:02:05;10.73;;;2.70;;
353;SDS011;165;53.592;10.044;2023-02-18T08:04:31;7.53;;;3.30;;
353;SDS011;165;53.592;10.044;2023-02-18T08:06:57;18.27;;;8.17;;
353;SDS011;165;53.592;10.044;2023-02-18T08:09:23;10.57;;;4.60;;
353;SDS011;165;53.592;10.044;2023-02-18T08:11:51;12.30;;;3.53;;
353;SDS011;165;53.592;10.044;2023-02-18T08:14:16;10.40;;;3.17;;
353;SDS011;165;53.592;10.044;2023-02-18T08:16:42;8.90;;;4.33;;
353;SDS011;165;53.592;10.044;2023-02-18T08:19:08;9.10;;;5.23;;
353;SDS011;165;53.592;10.044;2023-02-18T08:21:33;9.00;;;3.00;;
353;SDS011;165;53.592;10.044;2023-02-18T08:23:58;11.10;;;3.30;;
353;SDS011;165;53.592;10.044;2023-02-18T08:26:27;8.40;;;3.10;;
353;SDS011;165;53.592;10.044;2023-02-18T08:28:59;6.10;;;3.00;;
353;SDS011;165;53.592;10.044;2023-02-18T08:31:26;7.70;;;2.77;;
353;SDS011;165;53.592;10.044;2023-02-18T08:33:53;8.90;;;3.10;;
353;SDS011;165;53.592;10.044;2023-02-18T08:36:20;9.00;;;3.57;;
353;SDS011;165;53.592;10.044;2023-02-18T08:38:46;9.30;;;4.17;;
353;SDS011;165;53.592;10.044;2023-02-18T08:41:12;13.60;;;3.10;;
353;SDS011;165;53.592;10.044;2023-02-18T08:43:38;11.90;;;3.90;;
353;SDS011;165;53.592;10.044;2023-02-18T08:46:04;12.20;;;3.33;;
353;SDS011;165;53.592;10.044;2023-02-18T08:48:30;7.50;;;3.20;;
353;SDS011;165;53.592;10.044;2023-02-18T08:50:56;4.37;;;3.10;;
353;SDS011;165;53.592;10.044;2023-02-18T08:53:38;10.57;;;4.33;;
353;SDS011;165;53.592;10.044;2023-02-18T08:56:16;9.77;;;3.07;;
353;SDS011;165;53.592;10.044;2023-02-18T08:58:48;10.10;;;4.87;;
353;SDS011;165;53.592;10.044;2023-02-18T11:06:38;15.00;;;10.83;;
353;SDS011;165;53.592;10.044;2023-02-18T11:12:25;14.77;;;9.77;;
353;SDS011;165;53.592;10.044;2023-02-18T11:17:42;14.60;;;11.03;;
353;SDS011;165;53.592;10.044;2023-02-18T11:25:36;18.83;;;12.77;;
353;SDS011;165;53.592;10.044;2023-02-18T11:30:46;17.13;;;11.97;;
353;SDS011;165;53.592;10.044;2023-02-18T11:33:29;16.43;;;11.50;;
353;SDS011;165;53.592;10.044;2023-02-18T11:36:08;17.30;;;12.47;;
353;SDS011;165;53.592;10.044;2023-02-18T11:38:37;18.10;;;12.83;;
353;SDS011;165;53.592;10.044;2023-02-18T11:41:09;17.23;;;12.03;;
353;SDS011;165;53.592;10.044;2023-02-18T11:43:40;18.90;;;11.90;;
353;SDS011;165;53.592;10.044;2023-02-18T11:46:11;15.20;;;11.57;;
353;SDS011;165;53.592;10.044;2023-02-18T11:48:38;13.37;;;9.70;;
353;SDS011;165;53.592;10.044;2023-02-18T11:51:05;12.60;;;9.80;;
353;SDS011;165;53.592;10.044;2023-02-18T11:53:32;14.70;;;10.83;;
353;SDS011;165;53.592;10.044;2023-02-18T11:56:03;11.93;;;8.90;;
353;SDS011;165;53.592;10.044;2023-02-18T11:58:33;11.80;;;8.90;;
353;SDS011;165;53.592;10.044;2023-02-18T12:01:03;24.23;;;9.17;;
353;SDS011;165;53.592;10.044;2023-02-18T12:03:43;8.80;;;4.97;;
353;SDS011;165;53.592;10.044;2023-02-18T12:06:34;3.83;;;2.80;;
353;SDS011;165;53.592;10.044;2023-02-18T12:09:17;4.00;;;2.70;;
353;SDS011;165;53.592;10.044;2023-02-18T12:11:48;2.07;;;1.63;;
353;SDS011;165;53.592;10.044;2023-02-18T12:14:18;3.70;;;1.43;;
353;SDS011;165;53.592;10.044;2023-02-18T12:19:59;1.20;;;0.53;;
353;SDS011;165;53.592;10.044;2023-02-18T12:25:47;1.47;;;0.70;;
353;SDS011;165;53.592;10.044;2023-02-18T12:28:44;12.43;;;2.80;;
353;SDS011;165;53.592;10.044;2023-02-18T12:34:35;2.50;;;1.17;;
353;SDS011;165;53.592;10.044;2023-02-18T12:40:30;4.10;;;2.20;;
353;SDS011;165;53.592;10.044;2023-02-18T12:48:31;4.90;;;2.40;;
353;SDS011;165;53.592;10.044;2023-02-18T12:51:24;4.57;;;1.97;;
353;SDS011;165;53.592;10.044;2023-02-18T12:57:03;5.30;;;2.50;;
353;SDS011;165;53.592;10.044;2023-02-18T13:00:00;6.63;;;3.53;;
353;SDS011;165;53.592;10.044;2023-02-18T13:05:38;6.33;;;2.20;;
353;SDS011;165;53.592;10.044;2023-02-18T13:08:46;12.70;;;3.27;;
353;SDS011;165;53.592;10.044;2023-02-18T13:11:30;6.73;;;2.10;;
353;SDS011;165;53.592;10.044;2023-02-18T13:14:08;8.03;;;2.60;;
353;SDS011;165;53.592;10.044;2023-02-18T13:16:52;9.43;;;3.33;;
353;SDS011;165;53.592;10.044;2023-02-18T13:19:38;7.13;;;2.87;;
353;SDS011;165;53.592;10.044;2023-02-18T13:22:06;7.93;;;4.10;;
353;SDS011;165;53.592;10.044;2023-02-18T13:24:36;7.80;;;3.93;;
353;SDS011;165;53.592;10.044;2023-02-18T13:29:45;14.90;;;4.10;;
353;SDS011;165;53.592;10.044;2023-02-18T13:35:01;9.30;;;3.90;;
353;SDS011;165;53.592;10.044;2023-02-18T13:40:21;11.17;;;5.37;;
353;SDS011;165;53.592;10.044;2023-02-18T13:42:52;17.40;;;4.07;;
353;SDS011;165;53.592;10.044;2023-02-18T13:45:37;11.90;;;3.67;;
353;SDS011;165;53.592;10.044;2023-02-18T13:48:20;7.47;;;3.30;;
353;SDS011;165;53.592;10.044;2023-02-18T13:50:51;11.23;;;3.47;;
353;SDS011;165;53.592;10.044;2023-02-18T13:53:21;7.37;;;3.10;;
353;SDS011;165;53.592;10.044;2023-02-18T13:56:01;9.97;;;3.70;;
353;SDS011;165;53.592;10.044;2023-02-18T13:58:35;9.53;;;2.73;;
353;SDS011;165;53.592;10.044;2023-02-18T14:11:39;11.47;;;4.37;;
353;SDS011;165;53.592;10.044;2023-02-18T14:19:37;6.57;;;4.30;;
353;SDS011;165;53.592;10.044;2023-02-18T14:22:23;5.77;;;4.20;;
353;SDS011;165;53.592;10.044;2023-02-18T14:24:55;4.87;;;4.57;;
353;SDS011;165;53.592;10.044;2023-02-18T14:27:28;8.13;;;5.47;;
353;SDS011;165;53.592;10.044;2023-02-18T14:29:54;12.97;;;9.27;;
353;SDS011;165;53.592;10.044;2023-02-18T14:32:31;5.83;;;4.33;;
353;SDS011;165;53.592;10.044;2023-02-18T14:40:36;4.53;;;3.90;;
353;SDS011;165;53.592;10.044;2023-02-18T14:46:02;7.23;;;5.50;;
353;SDS011;165;53.592;10.044;2023-02-18T14:51:34;5.77;;;5.00;;
353;SDS011;165;53.592;10.044;2023-02-18T14:54:04;5.67;;;4.60;;
353;SDS011;165;53.592;10.044;2023-02-18T14:56:52;5.37;;;4.77;;
353;SDS011;165;53.592;10.044;2023-02-18T14:59:28;5.37;;;5.00;;
353;SDS011;165;53.592;10.044;2023-02-18T15:02:19;6.00;;;4.93;;
353;SDS011;165;53.592;10.044;2023-02-18T15:04:47;9.73;;;5.70;;
353;SDS011;165;53.592;10.044;2023-02-18T15:07:12;6.57;;;4.57;;
353;SDS011;165;53.592;10.044;2023-02-18T15:09:49;6.17;;;5.60;;
353;SDS011;165;53.592;10.044;2023-02-18T15:12:19;6.07;;;5.53;;
353;SDS011;165;53.592;10.044;2023-02-18T15:14:47;7.30;;;5.30;;
353;SDS011;165;53.592;10.044;2023-02-18T15:17:17;6.57;;;5.37;;
353;SDS011;165;53.592;10.044;2023-02-18T15:19:53;8.00;;;5.73;;
353;SDS011;165;53.592;10.044;2023-02-18T15:22:30;6.90;;;5.07;;
353;SDS011;165;53.592;10.044;2023-02-18T15:24:57;6.03;;;5.33;;
353;SDS011;165;53.592;10.044;2023-02-18T15:27:23;7.93;;;5.50;;
353;SDS011;165;53.592;10.044;2023-02-18T15:30:16;5.87;;;5.27;;
353;SDS011;165;53.592;10.044;2023-02-18T15:32:53;5.53;;;4.60;;
353;SDS011;165;53.592;10.044;2023-02-18T15:35:20;5.13;;;4.80;;
353;SDS011;165;53.592;10.044;2023-02-18T15:37:51;5.50;;;4.90;;
353;SDS011;165;53.592;10.044;2023-02-18T15:40:18;5.70;;;5.17;;
353;SDS011;165;53.592;10.044;2023-02-18T15:42:45;5.00;;;3.80;;
353;SDS011;165;53.592;10.044;2023-02-18T15:45:16;5.77;;;3.83;;
353;SDS011;165;53.592;10.044;2023-02-18T15:48:18;4.87;;;4.23;;
353;SDS011;165;53.592;10.044;2023-02-18T15:51:11;8.70;;;7.23;;
353;SDS011;165;53.592;10.044;2023-02-18T15:53:38;5.00;;;4.00;;
353;SDS011;165;53.592;10.044;2023-02-18T15:56:08;3.40;;;3.27;;
353;SDS011;165;53.592;10.044;2023-02-18T15:58:36;9.33;;;5.70;;
353;SDS011;165;53.592;10.044;2023-02-18T16:01:04;2.30;;;1.80;;
353;SDS011;165;53.592;10.044;2023-02-18T16:06:16;3.80;;;1.90;;
353;SDS011;165;53.592;10.044;2023-02-18T16:09:03;9.27;;;6.77;;
353;SDS011;165;53.592;10.044;2023-02-18T16:11:41;3.23;;;2.60;;
353;SDS011;165;53.592;10.044;2023-02-18T16:19:48;4.73;;;2.80;;
353;SDS011;165;53.592;10.044;2023-02-18T16:22:21;5.40;;;4.73;;
353;SDS011;165;53.592;10.044;2023-02-18T16:24:49;4.93;;;4.00;;
353;SDS011;165;53.592;10.044;2023-02-18T16:27:20;14.33;;;10.23;;
353;SDS011;165;53.592;10.044;2023-02-18T16:29:49;3.57;;;2.87;;
353;SDS011;165;53.592;10.044;2023-02-18T16:32:15;4.30;;;3.20;;
353;SDS011;165;53.592;10.044;2023-02-18T16:34:40;3.67;;;3.17;;
353;SDS011;165;53.592;10.044;2023-02-18T16:37:08;3.33;;;2.80;;
353;SDS011;165;53.592;10.044;2023-02-18T16:39:34;2.50;;;2.30;;
353;SDS011;165;53.592;10.044;2023-02-18T16:42:02;4.43;;;3.20;;
353;SDS011;165;53.592;10.044;2023-02-18T16:44:32;3.10;;;2.90;;
353;SDS011;165;53.592;10.044;2023-02-18T16:47:00;4.53;;;2.90;;
353;SDS011;165;53.592;10.044;2023-02-18T16:49:26;5.53;;;3.40;;
353;SDS011;165;53.592;10.044;2023-02-18T16:51:55;3.33;;;3.00;;
353;SDS011;165;53.592;10.044;2023-02-18T16:54:25;5.77;;;3.33;;
353;SDS011;165;53.592;10.044;2023-02-18T16:56:53;2.30;;;2.10;;
353;SDS011;165;53.592;10.044;2023-02-18T16:59:19;3.03;;;2.83;;
353;SDS011;165;53.592;10.044;2023-02-18T17:01:44;3.90;;;2.73;;
353;SDS011;165;53.592;10.044;2023-02-18T17:04:11;3.87;;;3.60;;
353;SDS011;165;53.592;10.044;2023-02-18T17:06:41;3.80;;;3.47;;
353;SDS011;165;53.592;10.044;2023-02-18T17:09:12;10.40;;;7.73;;
353;SDS011;165;53.592;10.044;2023-02-18T17:11:42;3.57;;;3.00;;
353;SDS011;165;53.592;10.044;2023-02-18T17:14:14;4.37;;;3.90;;
353;SDS011;165;53.592;10.044;2023-02-18T17:16:40;7.10;;;6.03;;
353;SDS011;165;53.592;10.044;2023-02-18T17:19:06;4.47;;;4.23;;
353;SDS011;165;53.592;10.044;2023-02-18T17:21:31;8.33;;;5.47;;
353;SDS011;165;53.592;10.044;2023-02-18T17:23:57;5.83;;;5.00;;
353;SDS011;165;53.592;10.044;2023-02-18T17:26:23;4.57;;;4.20;;
353;SDS011;165;53.592;10.044;2023-02-18T17:28:51;5.83;;;4.60;;
353;SDS011;165;53.592;10.044;2023-02-18T17:31:19;4.87;;;4.47;;
353;SDS011;165;53.592;10.044;2023-02-18T17:33:46;6.50;;;3.97;;
353;SDS011;165;53.592;10.044;2023-02-18T17:36:12;4.50;;;4.00;;
353;SDS011;165;53.592;10.044;2023-02-18T17:38:40;6.33;;;5.70;;
353;SDS011;165;53.592;10.044;2023-02-18T17:41:06;5.20;;;4.90;;
353;SDS011;165;53.592;10.044;2023-02-18T17:43:32;5.40;;;4.70;;
353;SDS011;165;53.592;10.044;2023-02-18T17:45:58;6.80;;;5.00;;
353;SDS011;165;53.592;10.044;2023-02-18T17:48:24;6.20;;;5.90;;
353;SDS011;165;53.592;10.044;2023-02-18T17:50:50;9.40;;;6.10;;
353;SDS011;165;53.592;10.044;2023-02-18T17:53:16;7.47;;;6.50;;
353;SDS011;165;53.592;10.044;2023-02-18T17:55:43;8.00;;;6.10;;
353;SDS011;165;53.592;10.044;2023-02-18T17:58:10;8.83;;;7.20;;
353;SDS011;165;53.592;10.044;2023-02-18T18:00:41;8.00;;;6.40;;
353;SDS011;165;53.592;10.044;2023-02-18T18:03:17;9.07;;;6.97;;
353;SDS011;165;53.592;10.044;2023-02-18T18:05:47;9.93;;;6.87;;
353;SDS011;165;53.592;10.044;2023-02-18T18:08:20;9.63;;;7.97;;
353;SDS011;165;53.592;10.044;2023-02-18T18:10:50;9.07;;;6.87;;
353;SDS011;165;53.592;10.044;2023-02-18T18:13:21;9.30;;;6.97;;
353;SDS011;165;53.592;10.044;2023-02-18T18:15:50;9.37;;;7.30;;
353;SDS011;165;53.592;10.044;2023-02-18T18:18:16;17.73;;;12.03;;
353;SDS011;165;53.592;10.044;2023-02-18T18:20:43;10.00;;;7.37;;
353;SDS011;165;53.592;10.044;2023-02-18T18:23:12;11.17;;;8.87;;
353;SDS011;165;53.592;10.044;2023-02-18T18:25:40;13.95;;;11.25;;
353;SDS011;165;53.592;10.044;2023-02-18T18:28:07;12.10;;;9.80;;
353;SDS011;165;53.592;10.044;2023-02-18T18:30:33;14.47;;;9.40;;
353;SDS011;165;53.592;10.044;2023-02-18T18:33:02;11.20;;;8.60;;
353;SDS011;165;53.592;10.044;2023-02-18T18:35:36;12.90;;;9.73;;
353;SDS011;165;53.592;10.044;2023-02-18T18:38:01;15.17;;;10.67;;
353;SDS011;165;53.592;10.044;2023-02-18T18:40:28;16.40;;;11.83;;
353;SDS011;165;53.592;10.044;2023-02-18T18:42:55;16.93;;;11.17;;
353;SDS011;165;53.592;10.044;2023-02-18T18:45:25;14.50;;;10.80;;
353;SDS011;165;53.592;10.044;2023-02-18T18:47:56;17.37;;;12.70;;
353;SDS011;165;53.592;10.044;2023-02-18T18:50:23;16.97;;;11.77;;
353;SDS011;165;53.592;10.044;2023-02-18T18:52:50;22.02;;;15.20;;
353;SDS011;165;53.592;10.044;2023-02-18T18:55:23;19.90;;;13.13;;
353;SDS011;165;53.592;10.044;2023-02-18T18:58:06;20.33;;;15.60;;
353;SDS011;165;53.592;10.044;2023-02-18T19:00:36;19.43;;;13.67;;
353;SDS011;165;53.592;10.044;2023-02-18T19:03:04;19.83;;;13.50;;
353;SDS011;165;53.592;10.044;2023-02-18T19:05:31;19.47;;;13.00;;
353;SDS011;165;53.592;10.044;2023-02-18T19:07:58;19.57;;;14.73;;
353;SDS011;165;53.592;10.044;2023-02-18T19:10:29;23.33;;;15.80;;
353;SDS011;165;53.592;10.044;2023-02-18T19:13:02;23.07;;;15.87;;
353;SDS011;165;53.592;10.044;2023-02-18T19:15:34;22.20;;;15.03;;
353;SDS011;165;53.592;10.044;2023-02-18T19:18:00;22.47;;;15.10;;
353;SDS011;165;53.592;10.044;2023-02-18T19:20:27;25.27;;;16.70;;
353;SDS011;165;53.592;10.044;2023-02-18T19:22:55;18.33;;;14.20;;
353;SDS011;165;53.592;10.044;2023-02-18T19:25:21;22.67;;;16.63;;
353;SDS011;165;53.592;10.044;2023-02-18T19:27:47;21.90;;;16.43;;
353;SDS011;165;53.592;10.044;2023-02-18T19:30:15;19.90;;;15.97;;
353;SDS011;165;53.592;10.044;2023-02-18T19:32:44;22.80;;;17.20;;
353;SDS011;165;53.592;10.044;2023-02-18T19:35:09;21.27;;;16.13;;
353;SDS011;165;53.592;10.044;2023-02-18T19:37:36;20.53;;;16.10;;
353;SDS011;165;53.592;10.044;2023-02-18T19:40:03;23.60;;;18.43;;
353;SDS011;165;53.592;10.044;2023-02-18T19:42:33;25.60;;;18.50;;
353;SDS011;165;53.592;10.044;2023-02-18T19:45:04;24.97;;;18.50;;
353;SDS011;165;53.592;10.044;2023-02-18T19:47:30;25.20;;;16.17;;
353;SDS011;165;53.592;10.044;2023-02-18T19:49:56;23.07;;;16.43;;